Time;durP1;ratioP1;P1;durP2;ratioP2;P2;SDS_P1;SDS_P2;PMS_P1;PMS_P2;Temp;Humidity;BMP_temperature;BMP_pressure;BME280_temperature;BME280_humidity;BME280_pressure;Samples;Min_cycle;Max_cycle;Signal;HPM_P1;HPM_P2
2022/04/27 00:02:27;;;;;;;4.60;1.88;;;3.90;99.90;;;;;;5076971;28;20059;-79
2022/04/27 00:04:54;;;;;;;3.25;1.02;;;3.90;99.90;;;;;;5073215;28;20074;-79
2022/04/27 00:07:22;;;;;;;5.30;1.15;;;3.80;99.90;;;;;;5071711;28;20044;-78
2022/04/27 00:09:49;;;;;;;2.08;1.20;;;3.70;99.90;;;;;;5054972;28;20516;-78
2022/04/27 00:12:17;;;;;;;4.53;0.95;;;3.70;99.90;;;;;;5072426;28;20385;-77
2022/04/27 00:14:44;;;;;;;1.75;1.00;;;3.60;99.90;;;;;;5072734;28;20052;-78
2022/04/27 00:17:12;;;;;;;3.80;1.10;;;3.50;99.90;;;;;;5071170;28;20143;-78
2022/04/27 00:19:40;;;;;;;3.72;0.90;;;3.40;99.90;;;;;;5072369;28;20052;-79
2022/04/27 00:22:08;;;;;;;1.67;0.98;;;3.40;99.90;;;;;;5073142;28;20056;-79
2022/04/27 00:24:35;;;;;;;1.48;0.82;;;3.30;99.90;;;;;;5071462;28;20131;-79
2022/04/27 00:27:03;;;;;;;2.97;1.10;;;3.20;99.90;;;;;;5072527;28;20083;-79
2022/04/27 00:29:30;;;;;;;2.83;0.93;;;3.10;99.90;;;;;;5080047;28;20139;-79
2022/04/27 00:31:58;;;;;;;1.85;0.98;;;3.10;99.90;;;;;;5091343;28;20074;-79
2022/04/27 00:34:25;;;;;;;4.38;1.00;;;3.00;99.90;;;;;;5092852;28;20078;-80
2022/04/27 00:36:54;;;;;;;1.77;0.85;;;2.90;99.90;;;;;;5087974;28;20055;-79
2022/04/27 00:39:22;;;;;;;1.63;0.90;;;2.90;99.90;;;;;;5085922;28;20053;-77
2022/04/27 00:42:00;;;;;;;1.83;1.10;;;2.90;99.90;;;;;;5071164;28;20041;-78
2022/04/27 00:44:27;;;;;;;6.40;0.90;;;2.80;99.90;;;;;;5071388;28;20135;-78
2022/04/27 00:46:55;;;;;;;1.42;0.88;;;2.80;99.90;;;;;;5077460;28;20036;-77
2022/04/27 00:49:23;;;;;;;0.60;0.60;;;2.70;99.90;;;;;;5078656;28;20051;-77
2022/04/27 00:51:51;;;;;;;0.88;0.63;;;2.70;99.90;;;;;;5092499;28;20043;-78
2022/04/27 00:54:22;;;;;;;2.40;0.93;;;2.60;99.90;;;;;;5089323;28;20105;-78
2022/04/27 00:56:50;;;;;;;1.42;0.82;;;2.60;99.90;;;;;;5089860;28;20139;-79
2022/04/27 00:59:18;;;;;;;2.67;0.82;;;2.60;99.90;;;;;;5092517;28;20090;-78
2022/04/27 01:01:46;;;;;;;4.35;0.80;;;2.50;99.90;;;;;;5071829;28;20415;-79
2022/04/27 01:04:14;;;;;;;1.67;0.70;;;2.50;99.90;;;;;;5087416;28;20044;-77
2022/04/27 01:06:58;;;;;;;2.72;1.10;;;2.50;99.90;;;;;;5187960;23;20050;31
2022/04/27 01:09:29;;;;;;;1.17;0.88;;;2.40;99.90;;;;;;5000829;28;20050;-78
2022/04/27 01:11:58;;;;;;;0.93;0.68;;;2.40;99.90;;;;;;4972794;28;20082;-79
2022/04/27 01:14:26;;;;;;;2.40;0.85;;;2.30;99.90;;;;;;4975016;28;20051;-78
2022/04/27 01:16:54;;;;;;;2.22;0.88;;;2.30;99.90;;;;;;4972122;28;20055;-78
2022/04/27 01:19:26;;;;;;;3.80;1.20;;;2.30;99.90;;;;;;4961783;28;20074;-77
2022/04/27 01:21:55;;;;;;;3.58;1.30;;;2.20;99.90;;;;;;4986366;28;20074;-74
2022/04/27 01:24:25;;;;;;;2.15;1.13;;;2.20;99.90;;;;;;4987431;28;20094;-74
2022/04/27 01:26:53;;;;;;;1.40;1.30;;;2.20;99.90;;;;;;4971095;28;20090;-74
2022/04/27 01:29:22;;;;;;;2.17;1.42;;;2.20;99.90;;;;;;4955121;28;20065;-75
2022/04/27 01:31:51;;;;;;;3.08;1.20;;;2.10;99.90;;;;;;5000747;28;20046;-74
2022/04/27 01:34:19;;;;;;;3.35;1.88;;;2.10;99.90;;;;;;5006409;28;20053;-75
2022/04/27 01:36:46;;;;;;;4.88;1.38;;;2.10;99.90;;;;;;4990643;28;20050;-73
2022/04/27 01:39:15;;;;;;;1.50;1.40;;;2.00;99.90;;;;;;4989819;28;20042;-75
2022/04/27 01:41:43;;;;;;;1.60;0.98;;;2.00;99.90;;;;;;4993483;28;20465;-74
2022/04/27 01:44:10;;;;;;;2.55;1.10;;;2.00;99.90;;;;;;4986789;28;20089;-76
2022/04/27 01:46:39;;;;;;;1.52;1.13;;;2.00;99.90;;;;;;4980013;28;20058;-75
2022/04/27 01:49:06;;;;;;;3.70;1.65;;;2.00;99.90;;;;;;4990308;28;20042;-75
2022/04/27 01:54:20;;;;;;;2.90;1.52;;;1.90;99.90;;;;;;4990152;28;20050;-75
2022/04/27 01:56:52;;;;;;;6.20;1.23;;;1.90;99.90;;;;;;4990079;28;20503;-75
2022/04/27 01:59:19;;;;;;;3.42;1.63;;;1.80;99.90;;;;;;5005328;28;20046;-74
2022/04/27 02:01:47;;;;;;;1.80;1.17;;;1.80;99.90;;;;;;4989724;28;20049;-76
2022/04/27 02:04:14;;;;;;;2.72;1.20;;;1.80;99.90;;;;;;5006556;28;20046;-74
2022/04/27 02:06:42;;;;;;;3.55;1.58;;;1.80;99.90;;;;;;4988966;28;20615;-74
2022/04/27 02:09:15;;;;;;;1.15;0.98;;;1.80;99.90;;;;;;4973662;28;20105;-74
2022/04/27 02:11:47;;;;;;;4.45;1.08;;;1.80;99.90;;;;;;4979239;28;20055;-75
2022/04/27 02:14:15;;;;;;;1.02;0.93;;;1.80;99.90;;;;;;4970857;28;20046;-76
2022/04/27 02:16:44;;;;;;;1.27;1.17;;;1.80;99.90;;;;;;4996526;28;20100;-75
2022/04/27 02:19:17;;;;;;;2.63;0.90;;;1.80;99.90;;;;;;4990128;28;20058;-75
2022/04/27 02:21:46;;;;;;;3.20;0.80;;;1.70;99.90;;;;;;4989979;28;20125;-75
2022/04/27 02:24:15;;;;;;;2.38;1.05;;;1.70;99.90;;;;;;4992364;28;20156;-75
2022/04/27 02:26:44;;;;;;;4.00;0.90;;;1.70;99.90;;;;;;4993196;28;20050;-75
2022/04/27 02:29:15;;;;;;;1.17;0.80;;;1.70;99.90;;;;;;4977732;28;20072;-76
2022/04/27 02:31:43;;;;;;;1.05;0.80;;;1.70;99.90;;;;;;4991001;28;20067;-76
2022/04/27 02:34:11;;;;;;;2.42;0.90;;;1.70;99.90;;;;;;4992840;28;20046;-75
2022/04/27 02:36:40;;;;;;;2.63;0.90;;;1.70;99.90;;;;;;4977664;28;20058;-75
2022/04/27 02:39:07;;;;;;;1.80;0.68;;;1.70;99.90;;;;;;5005770;28;20221;-76
2022/04/27 02:41:34;;;;;;;2.88;0.57;;;1.70;99.90;;;;;;4993548;28;20050;-76
2022/04/27 02:44:03;;;;;;;1.52;0.93;;;1.70;99.90;;;;;;4992565;28;20062;-76
2022/04/27 02:46:33;;;;;;;1.60;0.80;;;1.60;99.90;;;;;;4977440;28;20057;-76
2022/04/27 02:51:52;;;;;;;0.93;0.80;;;1.80;99.90;;;;;;4976348;28;20149;-75
2022/04/27 02:54:51;;;;;;;2.10;0.93;;;1.70;99.90;;;;;;4994714;28;20046;-75
2022/04/27 02:57:19;;;;;;;5.82;1.25;;;1.70;99.90;;;;;;4980332;28;20054;-75
2022/04/27 02:59:46;;;;;;;1.25;0.82;;;1.70;99.90;;;;;;4974041;28;20058;-76
2022/04/27 03:02:17;;;;;;;4.70;1.20;;;1.70;99.90;;;;;;4986122;28;20054;-75
2022/04/27 03:04:45;;;;;;;3.17;1.13;;;1.80;99.90;;;;;;4976101;28;20054;-76
2022/04/27 03:07:13;;;;;;;7.70;1.20;;;1.80;99.90;;;;;;4989535;28;20197;-75
2022/04/27 03:09:47;;;;;;;4.10;0.68;;;1.80;99.90;;;;;;4973800;28;20058;-76
2022/04/27 03:12:15;;;;;;;61.85;5.53;;;1.80;99.90;;;;;;4992966;28;20056;-75
2022/04/27 03:14:46;;;;;;;1.08;0.98;;;1.80;99.90;;;;;;4989961;28;20051;-75
2022/04/27 03:17:14;;;;;;;2.53;0.90;;;1.90;99.90;;;;;;4976676;28;20054;-76
2022/04/27 03:19:44;;;;;;;8.52;1.33;;;2.00;99.90;;;;;;4990738;28;20058;-75
2022/04/27 03:22:15;;;;;;;49.47;3.45;;;2.10;99.90;;;;;;4994104;28;20058;-76
2022/04/27 03:24:42;;;;;;;2.90;1.00;;;2.20;99.90;;;;;;4976664;28;20058;-75
2022/04/27 03:27:15;;;;;;;1.42;1.00;;;2.40;99.90;;;;;;4992617;28;20054;-75
2022/04/27 03:29:44;;;;;;;3.78;1.25;;;2.50;99.90;;;;;;4992893;28;20100;-75
2022/04/27 03:32:11;;;;;;;2.15;1.38;;;2.60;99.90;;;;;;4993442;28;20070;-75
2022/04/27 03:34:44;;;;;;;3.97;1.40;;;2.70;99.90;;;;;;4992468;28;20134;-75
2022/04/27 03:37:13;;;;;;;1.58;1.13;;;2.80;99.90;;;;;;4974875;28;20054;-74
2022/04/27 03:39:40;;;;;;;8.30;1.20;;;2.90;99.90;;;;;;4976418;28;20145;-76
2022/04/27 03:42:09;;;;;;;3.22;1.20;;;2.90;99.90;;;;;;4968465;28;20419;-75
2022/04/27 03:44:38;;;;;;;2.67;1.17;;;3.00;99.90;;;;;;4989142;28;20522;-75
2022/04/27 03:47:06;;;;;;;2.78;1.30;;;3.10;99.90;;;;;;4982957;28;20387;-75
2022/04/27 03:49:34;;;;;;;6.22;1.27;;;3.20;99.90;;;;;;4993878;28;20057;-74
2022/04/27 03:52:08;;;;;;;7.75;2.10;;;3.30;99.90;;;;;;4991918;28;20050;-75
2022/04/27 03:54:36;;;;;;;6.00;1.60;;;3.40;99.90;;;;;;4992211;28;20054;-75
2022/04/27 03:57:04;;;;;;;5.93;1.75;;;3.40;99.90;;;;;;4992819;28;20050;-75
2022/04/27 03:59:32;;;;;;;3.75;1.20;;;3.50;99.90;;;;;;4993060;28;20064;-75
2022/04/27 04:02:00;;;;;;;5.90;1.75;;;3.50;99.90;;;;;;4992375;28;20133;-76
2022/04/27 04:04:28;;;;;;;3.08;1.30;;;3.60;99.90;;;;;;4964808;28;20046;-75
2022/04/27 04:06:55;;;;;;;4.38;1.85;;;3.60;99.90;;;;;;4988149;28;20062;-75
2022/04/27 04:09:25;;;;;;;4.57;1.50;;;3.70;99.90;;;;;;4974471;28;20046;-76
2022/04/27 04:11:53;;;;;;;6.32;2.10;;;3.70;99.90;;;;;;4978626;28;20082;-75
2022/04/27 04:14:38;;;;;;;3.35;1.30;;;3.70;99.90;;;;;;4985017;28;20049;-75
2022/04/27 04:17:17;;;;;;;1.90;1.25;;;3.80;99.90;;;;;;4987856;28;20051;-77
2022/04/27 04:19:53;;;;;;;6.53;1.65;;;3.90;99.90;;;;;;4974000;28;20047;-75
2022/04/27 04:22:40;;;;;;;5.22;1.48;;;4.00;99.90;;;;;;4975008;28;20073;-80
2022/04/27 04:28:33;;;;;;;4.13;1.85;;;4.10;99.90;;;;;;4968994;28;20526;-75
2022/04/27 04:31:03;;;;;;;2.10;1.73;;;4.20;99.90;;;;;;4991764;28;20439;-75
2022/04/27 04:33:39;;;;;;;7.50;1.13;;;4.30;99.90;;;;;;4981260;28;20154;-76
2022/04/27 04:36:09;;;;;;;1.60;1.00;;;4.40;99.90;;;;;;4972518;28;20046;-76
2022/04/27 04:38:39;;;;;;;3.80;0.90;;;4.40;99.90;;;;;;4989115;28;20050;-79
2022/04/27 04:41:09;;;;;;;4.78;1.00;;;4.40;99.90;;;;;;4962692;28;20042;-78
2022/04/27 04:43:48;;;;;;;4.78;1.25;;;4.50;99.90;;;;;;4991613;28;20057;-77
2022/04/27 04:46:17;;;;;;;2.78;1.17;;;4.70;99.90;;;;;;4982480;28;20046;-78
2022/04/27 04:48:56;;;;;;;2.45;1.00;;;4.80;99.90;;;;;;4973290;28;20125;-77
2022/04/27 04:51:36;;;;;;;3.35;1.10;;;4.90;99.90;;;;;;4991132;28;20149;-79
2022/04/27 04:54:22;;;;;;;23.55;1.98;;;5.00;99.90;;;;;;4978539;28;20058;-80
2022/04/27 04:57:06;;;;;;;4.85;1.00;;;5.10;99.90;;;;;;4995354;28;20065;-80
2022/04/27 04:59:45;;;;;;;4.22;1.20;;;5.10;99.90;;;;;;4992096;28;20054;-80
2022/04/27 05:02:16;;;;;;;4.68;1.13;;;5.20;99.90;;;;;;4988450;28;20061;-79
2022/04/27 05:04:58;;;;;;;4.18;0.90;;;5.30;99.90;;;;;;4986070;28;20108;-78
2022/04/27 05:07:33;;;;;;;6.00;1.05;;;5.50;99.90;;;;;;4987679;28;20145;-77
2022/04/27 05:10:23;;;;;;;2.35;1.00;;;5.50;99.90;;;;;;4987852;28;20129;-79
2022/04/27 05:13:07;;;;;;;5.33;1.17;;;5.70;99.90;;;;;;4982479;28;20054;-79
2022/04/27 05:15:52;;;;;;;3.30;1.15;;;5.80;99.90;;;;;;4999208;28;20110;-79
2022/04/27 05:18:44;;;;;;;3.25;1.20;;;5.90;99.90;;;;;;4967709;28;20077;-79
2022/04/27 05:21:35;;;;;;;1.63;0.75;;;6.00;99.90;;;;;;4991177;28;20140;-78
2022/04/27 05:24:12;;;;;;;1.77;0.80;;;6.10;99.90;;;;;;4986727;28;20481;-78
2022/04/27 05:26:58;;;;;;;2.47;1.00;;;6.20;99.90;;;;;;4987519;28;20043;-78
2022/04/27 05:32:43;;;;;;;6.75;1.05;;;6.50;99.90;;;;;;4996599;28;20163;-76
2022/04/27 05:35:29;;;;;;;1.85;0.93;;;6.70;99.90;;;;;;4987058;28;20625;-76
2022/04/27 05:38:17;;;;;;;6.85;1.05;;;6.80;99.90;;;;;;4974873;28;20061;-77
2022/04/27 05:41:01;;;;;;;3.85;1.10;;;7.00;99.90;;;;;;4981620;28;20050;-75
2022/04/27 05:43:47;;;;;;;2.80;0.95;;;7.20;99.90;;;;;;4984459;28;20062;-75
2022/04/27 05:46:32;;;;;;;3.30;0.70;;;7.30;99.90;;;;;;4984051;28;20043;-75
2022/04/27 05:49:19;;;;;;;2.15;0.80;;;7.30;99.90;;;;;;4981209;28;20049;-76
2022/04/27 05:52:09;;;;;;;1.10;0.80;;;7.50;99.90;;;;;;4986283;28;20054;-79
2022/04/27 05:55:15;;;;;;;2.33;0.90;;;7.70;99.90;;;;;;4953441;28;20146;-73
2022/04/27 05:58:06;;;;;;;3.80;1.10;;;7.90;99.90;;;;;;4957474;28;20079;-73
2022/04/27 06:01:02;;;;;;;8.40;1.50;;;8.20;99.90;;;;;;4951540;28;20047;-74
2022/04/27 06:03:42;;;;;;;1.58;0.90;;;8.50;99.50;;;;;;4969794;28;20074;-76
2022/04/27 06:06:15;;;;;;;6.93;0.80;;;8.70;96.50;;;;;;5005760;28;20136;-75
2022/04/27 06:08:43;;;;;;;2.03;0.82;;;8.90;93.70;;;;;;4990095;28;20047;-78
2022/04/27 06:11:17;;;;;;;1.40;0.90;;;8.90;92.90;;;;;;4958319;28;20170;-75
2022/04/27 06:14:07;;;;;;;2.90;0.70;;;8.60;92.60;;;;;;4990115;28;20053;-74
2022/04/27 06:16:44;;;;;;;0.88;0.82;;;8.50;93.40;;;;;;4987884;28;20061;-73
2022/04/27 06:19:18;;;;;;;1.58;1.00;;;8.50;93.50;;;;;;4986332;28;20137;-74
2022/04/27 06:21:48;;;;;;;4.72;1.52;;;8.40;93.20;;;;;;4963048;28;20562;-75
2022/04/27 06:24:17;;;;;;;1.67;0.70;;;8.40;94.20;;;;;;4983194;28;20129;-77
2022/04/27 06:26:45;;;;;;;1.52;0.60;;;8.30;95.00;;;;;;4970877;28;20039;-72
2022/04/27 06:29:12;;;;;;;1.10;0.75;;;8.20;95.80;;;;;;4982337;28;20043;-73
2022/04/27 06:31:41;;;;;;;2.05;0.90;;;8.10;96.40;;;;;;4962248;28;20153;-73
2022/04/27 06:34:09;;;;;;;2.38;0.80;;;8.10;97.80;;;;;;4977389;28;20145;-76
2022/04/27 06:36:38;;;;;;;11.27;0.88;;;8.10;98.30;;;;;;4976693;28;20417;-77
2022/04/27 06:39:15;;;;;;;1.42;0.60;;;8.30;98.00;;;;;;4978590;28;20054;-77
2022/04/27 06:41:43;;;;;;;0.75;0.75;;;8.40;96.10;;;;;;4982498;28;20061;-77
2022/04/27 06:44:29;;;;;;;3.92;0.65;;;8.50;94.80;;;;;;4981087;28;20057;-73
2022/04/27 06:47:15;;;;;;;3.20;0.90;;;8.60;94.90;;;;;;4988326;28;20043;-74
2022/04/27 06:50:01;;;;;;;1.75;0.77;;;8.70;93.60;;;;;;4990012;28;20124;-74
2022/04/27 06:53:00;;;;;;;2.67;0.75;;;8.70;92.90;;;;;;4948049;28;20047;-74
2022/04/27 06:55:53;;;;;;;2.03;0.70;;;8.80;90.10;;;;;;4986178;28;20064;-74
2022/04/27 06:58:43;;;;;;;4.57;1.13;;;8.70;90.60;;;;;;4975988;28;20061;-76
2022/04/27 07:01:21;;;;;;;1.15;0.70;;;8.90;90.50;;;;;;4988943;28;20046;-74
2022/04/27 07:03:53;;;;;;;2.53;0.80;;;9.00;87.50;;;;;;4989115;28;20061;-74
2022/04/27 07:06:22;;;;;;;3.90;0.70;;;9.20;86.80;;;;;;4984864;28;20053;-74
2022/04/27 07:08:51;;;;;;;1.35;0.95;;;9.30;81.90;;;;;;4985459;28;20046;-75
2022/04/27 07:11:18;;;;;;;1.10;0.80;;;9.50;80.60;;;;;;4986620;28;20410;-76
2022/04/27 07:13:45;;;;;;;0.90;0.65;;;9.60;80.00;;;;;;4988670;28;20046;-78
2022/04/27 07:16:12;;;;;;;4.85;1.95;;;9.70;80.30;;;;;;4988937;28;20525;-79
2022/04/27 07:18:40;;;;;;;1.13;0.50;;;9.90;78.10;;;;;;4989550;28;20506;-76
2022/04/27 07:21:08;;;;;;;6.07;1.00;;;10.20;77.00;;;;;;4983042;28;20047;-76
2022/04/27 07:23:36;;;;;;;2.10;0.70;;;10.50;75.80;;;;;;4990298;28;20553;-76
2022/04/27 07:26:07;;;;;;;6.60;0.90;;;10.60;71.10;;;;;;4986131;28;20140;-77
2022/04/27 07:28:36;;;;;;;0.77;0.77;;;10.60;70.90;;;;;;4991057;28;20046;-76
2022/04/27 07:31:03;;;;;;;0.88;0.70;;;10.70;70.00;;;;;;4986988;28;20411;-74
2022/04/27 07:33:30;;;;;;;2.95;0.68;;;11.10;70.70;;;;;;4992275;28;20058;-75
2022/04/27 07:35:58;;;;;;;8.02;0.85;;;11.40;67.80;;;;;;4980040;28;20585;-76
2022/04/27 07:38:27;;;;;;;0.93;0.55;;;11.60;67.90;;;;;;4983495;28;20050;-74
2022/04/27 07:40:54;;;;;;;2.22;1.80;;;11.90;66.00;;;;;;4992977;28;20050;-74
2022/04/27 07:43:23;;;;;;;1.02;0.55;;;11.80;62.00;;;;;;5007381;28;20045;-74
2022/04/27 07:45:50;;;;;;;3.83;1.15;;;11.60;61.70;;;;;;4992791;28;20054;-76
2022/04/27 07:48:18;;;;;;;4.97;1.17;;;11.50;63.00;;;;;;5007250;28;20070;-76
2022/04/27 07:50:45;;;;;;;4.65;1.33;;;11.50;61.50;;;;;;4992658;28;20519;-75
2022/04/27 07:53:13;;;;;;;1.73;1.00;;;11.80;60.90;;;;;;4992488;28;20589;-78
2022/04/27 07:55:40;;;;;;;3.45;1.23;;;11.70;60.00;;;;;;4993524;28;20108;-75
2022/04/27 07:58:08;;;;;;;2.30;0.82;;;11.40;60.50;;;;;;4964330;28;20134;-75
2022/04/27 08:00:37;;;;;;;5.60;1.08;;;11.10;60.60;;;;;;4982995;28;20061;-74
2022/04/27 08:03:05;;;;;;;0.85;0.40;;;10.70;61.40;;;;;;4992201;28;20043;-75
2022/04/27 08:05:33;;;;;;;4.22;0.60;;;10.40;63.50;;;;;;4991234;28;20050;-75
2022/04/27 08:08:00;;;;;;;3.17;0.95;;;10.20;64.20;;;;;;4992255;28;20046;-73
2022/04/27 08:10:30;;;;;;;4.28;0.80;;;9.90;63.40;;;;;;4992957;28;20054;-71
2022/04/27 08:12:58;;;;;;;2.45;0.68;;;9.60;61.90;;;;;;4982084;28;20478;-75
2022/04/27 08:15:26;;;;;;;5.07;1.33;;;9.30;65.50;;;;;;4971641;28;20050;-77
2022/04/27 08:18:00;;;;;;;3.35;0.80;;;9.00;66.90;;;;;;4991111;28;20073;-74
2022/04/27 08:23:16;;;;;;;3.78;0.90;;;9.10;70.40;;;;;;4988895;28;20133;-72
2022/04/27 08:25:45;;;;;;;3.72;1.15;;;8.80;72.50;;;;;;4990201;28;20104;-72
2022/04/27 08:28:12;;;;;;;9.70;1.27;;;8.60;73.40;;;;;;4982962;28;20056;-72
2022/04/27 08:30:42;;;;;;;2.47;0.85;;;8.40;74.60;;;;;;4983825;28;20467;-73
2022/04/27 08:33:12;;;;;;;5.38;0.95;;;8.10;74.70;;;;;;4989692;28;20184;-72
2022/04/27 08:35:40;;;;;;;3.30;0.73;;;7.80;75.90;;;;;;4998880;28;20430;-73
2022/04/27 08:38:09;;;;;;;4.43;1.67;;;7.70;79.20;;;;;;4991629;28;20260;-71
2022/04/27 08:40:38;;;;;;;3.13;1.10;;;7.60;78.60;;;;;;4987637;28;20137;-72
2022/04/27 08:43:06;;;;;;;2.90;0.90;;;7.40;79.80;;;;;;5006618;28;20050;-72
2022/04/27 08:45:33;;;;;;;5.95;1.42;;;7.30;81.40;;;;;;4991741;28;20108;-71
2022/04/27 08:48:01;;;;;;;7.20;1.27;;;7.10;86.80;;;;;;4991692;28;20518;-73
2022/04/27 08:50:30;;;;;;;2.55;1.02;;;6.70;99.90;;;;;;4991620;28;20137;-72
2022/04/27 08:52:58;;;;;;;5.30;1.38;;;6.40;99.90;;;;;;4984858;28;20138;-72
2022/04/27 08:55:27;;;;;;;1.88;1.30;;;6.20;99.90;;;;;;4991179;28;20141;-70
2022/04/27 08:57:55;;;;;;;2.45;1.42;;;6.10;99.90;;;;;;4989448;28;20116;-72
2022/04/27 09:00:23;;;;;;;3.28;1.60;;;6.00;99.90;;;;;;4986700;28;20051;-72
2022/04/27 09:02:54;;;;;;;3.15;1.00;;;6.00;99.90;;;;;;4989484;28;20120;-71
2022/04/27 09:05:22;;;;;;;1.25;0.95;;;6.10;99.90;;;;;;4990745;28;20050;-70
2022/04/27 09:07:56;;;;;;;1.67;1.10;;;6.30;99.90;;;;;;4982943;28;20610;-73
2022/04/27 09:10:27;;;;;;;8.77;1.50;;;6.40;99.90;;;;;;4990186;28;20492;-71
2022/04/27 09:12:56;;;;;;;2.70;0.80;;;6.50;99.90;;;;;;4981337;28;20144;-70
2022/04/27 09:15:26;;;;;;;4.90;0.93;;;6.70;99.90;;;;;;4983103;28;20056;-73
2022/04/27 09:20:48;;;;;;;1.52;0.90;;;7.40;99.90;;;;;;4948696;28;20054;-73
2022/04/27 09:23:26;;;;;;;1.58;1.08;;;7.80;99.90;;;;;;4983463;28;20454;-72
2022/04/27 09:25:55;;;;;;;1.30;0.90;;;8.20;99.90;;;;;;4981095;28;20112;-74
2022/04/27 09:28:30;;;;;;;2.08;1.08;;;8.50;99.00;;;;;;4972093;28;20047;-74
2022/04/27 09:31:00;;;;;;;3.13;1.10;;;8.80;94.90;;;;;;4977387;28;20498;-76
2022/04/27 09:33:33;;;;;;;0.77;0.77;;;8.90;93.20;;;;;;4990811;28;20065;-74
2022/04/27 09:36:01;;;;;;;1.15;0.82;;;9.00;85.30;;;;;;4990672;28;20140;-74
2022/04/27 09:38:49;;;;;;;1.10;0.70;;;9.00;85.10;;;;;;4986757;28;20142;-75
2022/04/27 09:41:36;;;;;;;1.38;0.45;;;9.00;76.30;;;;;;4988421;28;20521;-74
2022/04/27 09:44:04;;;;;;;3.50;0.60;;;8.90;79.10;;;;;;4991102;28;20565;-76
2022/04/27 09:46:32;;;;;;;2.85;0.73;;;9.00;76.10;;;;;;4973576;28;20057;-76
2022/04/27 09:49:14;;;;;;;2.70;0.60;;;9.40;76.70;;;;;;4987645;28;20046;-75
2022/04/27 09:51:49;;;;;;;5.28;0.60;;;9.80;75.20;;;;;;4986941;28;20343;-73
2022/04/27 09:54:22;;;;;;;0.98;0.55;;;10.20;70.40;;;;;;4982662;28;20054;-72
2022/04/27 09:56:56;;;;;;;0.80;0.60;;;10.40;69.70;;;;;;4984549;28;20062;-73
2022/04/27 09:59:26;;;;;;;1.48;0.60;;;10.70;70.80;;;;;;4988351;28;20419;-72
2022/04/27 10:01:57;;;;;;;0.68;0.63;;;10.90;71.70;;;;;;5004690;28;20137;-72
2022/04/27 10:04:29;;;;;;;0.70;0.60;;;10.90;70.80;;;;;;4990133;28;20157;-72
2022/04/27 10:06:59;;;;;;;1.63;0.60;;;10.60;70.80;;;;;;4987611;28;20426;-73
2022/04/27 10:09:29;;;;;;;3.83;0.80;;;10.40;72.50;;;;;;4990311;28;20046;-72
2022/04/27 10:11:58;;;;;;;2.20;0.80;;;11.00;76.30;;;;;;4997920;28;20137;-71
2022/04/27 10:14:27;;;;;;;1.60;0.75;;;12.80;74.70;;;;;;4989636;28;20558;-70
2022/04/27 10:16:56;;;;;;;4.80;1.08;;;14.80;66.10;;;;;;4981028;28;20051;-73
2022/04/27 10:19:24;;;;;;;2.40;1.10;;;16.20;57.70;;;;;;4972060;28;20078;-71
2022/04/27 10:21:59;;;;;;;3.83;1.10;;;16.80;55.40;;;;;;4981327;28;20082;-72
2022/04/27 10:24:50;;;;;;;3.28;1.25;;;17.40;53.20;;;;;;4991088;28;20054;-76
2022/04/27 10:27:20;;;;;;;1.40;0.80;;;16.40;51.90;;;;;;4988253;28;20046;-76
2022/04/27 10:29:59;;;;;;;2.95;1.30;;;15.10;52.60;;;;;;4986882;28;20065;-73
2022/04/27 10:32:38;;;;;;;3.25;1.00;;;14.20;54.60;;;;;;4986249;28;20145;-73
2022/04/27 10:35:25;;;;;;;2.53;0.80;;;15.40;54.40;;;;;;4988769;28;20589;-75
2022/04/27 10:37:57;;;;;;;3.20;0.90;;;17.00;52.60;;;;;;4987225;28;20057;-75
2022/04/27 10:40:34;;;;;;;0.90;0.75;;;17.90;50.10;;;;;;5005868;28;20047;-75
2022/04/27 10:43:05;;;;;;;2.28;2.08;;;18.60;47.40;;;;;;4983637;28;20061;-74
2022/04/27 10:45:34;;;;;;;4.78;0.80;;;19.10;45.50;;;;;;4991071;28;20077;-78
2022/04/27 10:48:03;;;;;;;1.23;0.60;;;19.20;43.20;;;;;;4990240;28;20054;-81
2022/04/27 10:50:33;;;;;;;1.23;0.70;;;18.00;43.80;;;;;;4993826;28;20057;-80
2022/04/27 10:53:20;;;;;;;3.00;0.70;;;17.40;46.50;;;;;;4990861;28;20068;-78
2022/04/27 10:55:53;;;;;;;3.97;0.82;;;17.20;47.50;;;;;;4986757;28;20063;-80
2022/04/27 10:58:31;;;;;;;5.95;1.02;;;16.40;47.00;;;;;;4976645;28;20055;-78
2022/04/27 11:01:31;;;;;;;0.60;0.55;;;15.40;48.60;;;;;;4991198;28;20050;-79
2022/04/27 11:04:12;;;;;;;2.40;0.70;;;14.10;49.30;;;;;;4991874;28;20043;-78
2022/04/27 11:07:20;;;;;;;5.50;1.00;;;13.20;51.80;;;;;;4991071;28;20058;-79
2022/04/27 11:10:18;;;;;;;2.70;0.70;;;12.20;52.20;;;;;;4968468;28;20117;-79
2022/04/27 11:12:50;;;;;;;1.23;0.80;;;11.40;53.80;;;;;;4984285;28;20088;-76
2022/04/27 11:15:22;;;;;;;1.27;0.60;;;10.70;54.90;;;;;;4991807;28;20157;-76
2022/04/27 11:18:00;;;;;;;5.95;0.95;;;10.30;55.90;;;;;;4976397;28;20410;-76
2022/04/27 11:20:34;;;;;;;3.60;0.88;;;10.00;57.40;;;;;;4994194;28;20486;-76
2022/04/27 11:23:07;;;;;;;8.05;1.00;;;9.70;58.80;;;;;;4988878;28;20482;-81
2022/04/27 11:25:37;;;;;;;4.75;0.90;;;9.40;60.40;;;;;;4980487;28;20046;-80
2022/04/27 11:28:07;;;;;;;6.53;1.15;;;9.20;61.20;;;;;;4992813;28;20292;-80
2022/04/27 11:30:35;;;;;;;6.40;1.45;;;9.00;61.40;;;;;;4993278;28;20046;-82
2022/04/27 11:33:03;;;;;;;4.43;1.63;;;8.80;60.90;;;;;;4992318;28;20356;-81
2022/04/27 11:35:44;;;;;;;2.63;0.80;;;8.70;60.70;;;;;;4993224;28;20382;-81
2022/04/27 11:38:17;;;;;;;2.33;0.80;;;8.40;60.10;;;;;;5009555;28;20059;-80
2022/04/27 11:40:46;;;;;;;2.95;0.60;;;8.10;59.90;;;;;;4992599;28;20042;-82
2022/04/27 11:43:14;;;;;;;5.10;0.70;;;7.90;61.80;;;;;;4989730;28;20043;-78
2022/04/27 11:45:42;;;;;;;1.10;0.40;;;7.70;61.80;;;;;;4993579;28;20050;-77
2022/04/27 11:48:10;;;;;;;2.78;0.70;;;7.50;62.30;;;;;;4992569;28;20054;-79
2022/04/27 11:50:41;;;;;;;14.82;0.77;;;7.30;63.30;;;;;;5009008;28;20450;-79
2022/04/27 11:53:11;;;;;;;0.77;0.60;;;7.20;63.40;;;;;;4983754;28;20620;-79
2022/04/27 11:55:39;;;;;;;4.60;0.70;;;7.10;64.10;;;;;;4993745;28;20112;-73
2022/04/27 11:58:07;;;;;;;0.88;0.63;;;7.10;64.60;;;;;;4991457;28;20057;-74
2022/04/27 12:00:37;;;;;;;2.47;0.60;;;7.10;63.10;;;;;;4985689;28;20054;-71
2022/04/27 12:03:06;;;;;;;0.77;0.77;;;7.20;64.20;;;;;;4991453;28;20084;-73
2022/04/27 12:05:35;;;;;;;1.90;0.95;;;7.30;63.80;;;;;;4993530;28;20101;-72
2022/04/27 12:08:06;;;;;;;2.88;0.85;;;7.30;63.40;;;;;;4993008;28;20046;-74
2022/04/27 12:10:40;;;;;;;2.38;1.02;;;7.40;63.70;;;;;;4990834;28;20063;-74
2022/04/27 12:13:08;;;;;;;5.43;0.77;;;7.50;64.80;;;;;;4993116;28;20097;-75
2022/04/27 12:15:39;;;;;;;1.38;0.70;;;7.60;67.10;;;;;;4992461;28;20069;-74
2022/04/27 12:18:07;;;;;;;4.68;0.82;;;7.70;68.10;;;;;;4990688;28;20058;-74
2022/04/27 12:20:40;;;;;;;3.53;0.80;;;7.80;68.20;;;;;;4992622;28;20449;-74
2022/04/27 12:23:10;;;;;;;1.33;0.47;;;7.90;69.40;;;;;;5006690;28;20510;-78
2022/04/27 12:25:45;;;;;;;0.80;0.52;;;8.00;69.90;;;;;;4984812;28;20078;-75
2022/04/27 12:28:16;;;;;;;3.20;0.80;;;8.00;70.50;;;;;;5003080;28;20051;-75
2022/04/27 12:30:53;;;;;;;1.25;0.60;;;8.00;70.20;;;;;;4986086;28;20058;-75
2022/04/27 12:33:23;;;;;;;1.15;0.73;;;8.10;71.40;;;;;;4991571;28;20058;-74
2022/04/27 12:38:58;;;;;;;2.55;0.80;;;8.80;67.80;;;;;;4990578;28;20506;-73
2022/04/27 12:41:30;;;;;;;2.67;0.60;;;9.10;67.60;;;;;;4986667;28;20078;-73
2022/04/27 12:44:06;;;;;;;1.55;0.50;;;9.50;65.40;;;;;;4971187;28;20054;-78
2022/04/27 12:46:35;;;;;;;2.10;0.60;;;9.80;64.50;;;;;;4987814;28;20042;-84
2022/04/27 12:49:05;;;;;;;2.78;0.80;;;10.10;64.40;;;;;;4990387;28;20054;-80
2022/04/27 12:51:35;;;;;;;6.82;1.10;;;10.70;63.60;;;;;;4990125;28;20133;-79
2022/04/27 12:54:03;;;;;;;2.03;0.65;;;11.10;62.00;;;;;;4985177;28;20054;-80
2022/04/27 12:56:35;;;;;;;3.92;1.02;;;11.50;61.00;;;;;;4987863;28;20061;-83
2022/04/27 12:59:05;;;;;;;2.58;1.20;;;12.00;59.50;;;;;;5005453;28;20140;-83
2022/04/27 13:01:34;;;;;;;3.08;1.30;;;12.10;58.70;;;;;;4982044;28;20050;-80
2022/04/27 13:04:02;;;;;;;4.18;1.13;;;11.80;57.70;;;;;;4989700;28;20557;-81
2022/04/27 13:06:31;;;;;;;9.20;1.77;;;11.30;57.90;;;;;;4982616;28;20059;-79
2022/04/27 13:11:55;;;;;;;3.15;1.10;;;10.70;58.40;;;;;;4980980;28;20061;-79
2022/04/27 13:11:56;;;;;;;2.88;1.30;;;10.10;59.70;;;;;;4985867;28;20124;-75
2022/04/27 13:14:26;;;;;;;6.03;1.40;;;9.50;62.30;;;;;;4989514;28;20427;-74
2022/04/27 13:16:56;;;;;;;5.38;1.50;;;9.00;64.10;;;;;;4977493;28;20145;-74
2022/04/27 13:19:24;;;;;;;5.75;1.20;;;8.60;66.80;;;;;;4984077;28;20043;-82
2022/04/27 13:21:52;;;;;;;4.40;1.60;;;8.20;66.60;;;;;;4973076;28;20061;-82
2022/04/27 13:24:19;;;;;;;5.00;1.60;;;7.80;68.60;;;;;;4990492;28;20046;-80
2022/04/27 13:26:46;;;;;;;2.58;1.08;;;7.60;69.00;;;;;;4984129;28;20054;-78
2022/04/27 13:29:14;;;;;;;3.15;1.85;;;7.60;69.40;;;;;;5003890;28;20141;-75
2022/04/27 13:31:41;;;;;;;3.70;1.15;;;7.80;70.10;;;;;;4983766;28;20054;-73
2022/04/27 13:34:10;;;;;;;2.40;1.35;;;8.50;69.20;;;;;;4977051;28;20153;-78
2022/04/27 13:36:37;;;;;;;2.58;1.25;;;9.50;65.30;;;;;;4983862;28;20141;-81
2022/04/27 13:39:05;;;;;;;3.55;1.42;;;9.70;63.90;;;;;;4991796;28;20176;-80
2022/04/27 13:41:32;;;;;;;3.47;1.20;;;9.60;62.60;;;;;;4988418;28;20510;-78
2022/04/27 13:44:00;;;;;;;7.10;1.70;;;9.30;63.10;;;;;;4991004;28;20081;-79